sensor_id;sensor_type;location;lat;lon;timestamp;temperature;humidity
22008;DHT22;11168;56.976;24.168;2023-05-15T00:00:43;11.30;99.90
22008;DHT22;11168;56.976;24.168;2023-05-15T00:03:10;11.20;99.90
22008;DHT22;11168;56.976;24.168;2023-05-15T00:05:38;11.20;99.90
22008;DHT22;11168;56.976;24.168;2023-05-15T00:08:07;11.20;99.90
22008;DHT22;11168;56.976;24.168;2023-05-15T00:10:34;11.20;99.90
22008;DHT22;11168;56.976;24.168;2023-05-15T00:13:01;11.20;99.90
22008;DHT22;11168;56.976;24.168;2023-05-15T00:15:28;11.20;99.90
22008;DHT22;11168;56.976;24.168;2023-05-15T00:17:55;11.30;99.90
22008;DHT22;11168;56.976;24.168;2023-05-15T00:20:22;11.20;99.90
22008;DHT22;11168;56.976;24.168;2023-05-15T00:22:51;11.20;99.90
22008;DHT22;11168;56.976;24.168;2023-05-15T00:25:18;11.10;99.90
22008;DHT22;11168;56.976;24.168;2023-05-15T00:27:45;11.20;99.90
22008;DHT22;11168;56.976;24.168;2023-05-15T00:30:13;11.20;99.90
22008;DHT22;11168;56.976;24.168;2023-05-15T00:32:40;11.20;99.90
22008;DHT22;11168;56.976;24.168;2023-05-15T00:35:07;11.10;99.90
22008;DHT22;11168;56.976;24.168;2023-05-15T00:37:34;11.20;99.90
22008;DHT22;11168;56.976;24.168;2023-05-15T00:40:02;11.50;99.90
22008;DHT22;11168;56.976;24.168;2023-05-15T00:42:29;11.50;99.90
22008;DHT22;11168;56.976;24.168;2023-05-15T00:44:57;11.50;99.90
22008;DHT22;11168;56.976;24.168;2023-05-15T00:47:26;11.50;99.90
22008;DHT22;11168;56.976;24.168;2023-05-15T00:49:54;11.50;99.90
22008;DHT22;11168;56.976;24.168;2023-05-15T00:52:23;11.50;99.90
22008;DHT22;11168;56.976;24.168;2023-05-15T00:54:50;11.40;99.90
22008;DHT22;11168;56.976;24.168;2023-05-15T00:57:18;11.40;99.90
22008;DHT22;11168;56.976;24.168;2023-05-15T00:59:46;11.40;99.90
22008;DHT22;11168;56.976;24.168;2023-05-15T01:02:16;11.20;99.90
22008;DHT22;11168;56.976;24.168;2023-05-15T01:04:44;11.30;99.90
22008;DHT22;11168;56.976;24.168;2023-05-15T01:07:12;11.20;99.90
22008;DHT22;11168;56.976;24.168;2023-05-15T01:09:41;11.30;99.90
22008;DHT22;11168;56.976;24.168;2023-05-15T01:12:10;11.20;99.90
22008;DHT22;11168;56.976;24.168;2023-05-15T01:14:37;11.20;99.90
22008;DHT22;11168;56.976;24.168;2023-05-15T01:17:04;11.20;99.90
22008;DHT22;11168;56.976;24.168;2023-05-15T01:19:33;11.20;99.90
22008;DHT22;11168;56.976;24.168;2023-05-15T01:28:04;11.10;99.90
22008;DHT22;11168;56.976;24.168;2023-05-15T01:30:35;11.10;99.90
22008;DHT22;11168;56.976;24.168;2023-05-15T01:36:50;11.00;99.90
22008;DHT22;11168;56.976;24.168;2023-05-15T01:38:52;10.90;99.90
22008;DHT22;11168;56.976;24.168;2023-05-15T01:41:40;11.00;99.90
22008;DHT22;11168;56.976;24.168;2023-05-15T01:46:45;11.00;99.90
22008;DHT22;11168;56.976;24.168;2023-05-15T01:49:18;11.00;99.90
22008;DHT22;11168;56.976;24.168;2023-05-15T01:51:49;11.00;99.90
22008;DHT22;11168;56.976;24.168;2023-05-15T01:54:16;11.00;99.90
22008;DHT22;11168;56.976;24.168;2023-05-15T01:56:44;11.00;99.90
22008;DHT22;11168;56.976;24.168;2023-05-15T01:59:12;10.90;99.90
22008;DHT22;11168;56.976;24.168;2023-05-15T02:01:41;10.90;99.90
22008;DHT22;11168;56.976;24.168;2023-05-15T02:04:10;10.80;99.90
22008;DHT22;11168;56.976;24.168;2023-05-15T02:06:38;10.80;99.90
22008;DHT22;11168;56.976;24.168;2023-05-15T02:09:06;10.80;99.90
22008;DHT22;11168;56.976;24.168;2023-05-15T02:11:33;10.80;99.90
22008;DHT22;11168;56.976;24.168;2023-05-15T02:14:01;10.80;99.90
22008;DHT22;11168;56.976;24.168;2023-05-15T02:16:30;10.80;99.90
22008;DHT22;11168;56.976;24.168;2023-05-15T02:18:57;10.70;99.90
22008;DHT22;11168;56.976;24.168;2023-05-15T02:21:24;10.70;99.90
22008;DHT22;11168;56.976;24.168;2023-05-15T02:23:51;10.80;99.90
22008;DHT22;11168;56.976;24.168;2023-05-15T02:26:25;10.90;99.90
22008;DHT22;11168;56.976;24.168;2023-05-15T02:34:37;10.90;99.90
22008;DHT22;11168;56.976;24.168;2023-05-15T02:37:13;11.00;99.90
22008;DHT22;11168;56.976;24.168;2023-05-15T02:39:41;11.00;99.90
22008;DHT22;11168;56.976;24.168;2023-05-15T02:42:12;11.30;99.90
22008;DHT22;11168;56.976;24.168;2023-05-15T02:44:40;11.40;99.90
22008;DHT22;11168;56.976;24.168;2023-05-15T02:47:08;11.40;99.90
22008;DHT22;11168;56.976;24.168;2023-05-15T02:49:36;11.40;99.90
22008;DHT22;11168;56.976;24.168;2023-05-15T02:52:04;11.50;99.90
22008;DHT22;11168;56.976;24.168;2023-05-15T02:54:31;11.50;99.90
22008;DHT22;11168;56.976;24.168;2023-05-15T02:56:58;11.50;99.90
22008;DHT22;11168;56.976;24.168;2023-05-15T02:59:25;11.40;99.90
22008;DHT22;11168;56.976;24.168;2023-05-15T03:01:52;11.40;99.90
22008;DHT22;11168;56.976;24.168;2023-05-15T03:04:19;11.30;99.90
22008;DHT22;11168;56.976;24.168;2023-05-15T03:06:46;11.30;99.90
22008;DHT22;11168;56.976;24.168;2023-05-15T03:09:13;11.30;99.90
22008;DHT22;11168;56.976;24.168;2023-05-15T03:11:40;11.30;99.90
22008;DHT22;11168;56.976;24.168;2023-05-15T03:14:08;11.40;99.90
22008;DHT22;11168;56.976;24.168;2023-05-15T03:16:35;11.40;99.90
22008;DHT22;11168;56.976;24.168;2023-05-15T03:19:04;11.40;99.90
22008;DHT22;11168;56.976;24.168;2023-05-15T03:21:32;11.40;99.90
22008;DHT22;11168;56.976;24.168;2023-05-15T03:24:00;11.40;99.90
22008;DHT22;11168;56.976;24.168;2023-05-15T03:26:27;11.40;99.90
22008;DHT22;11168;56.976;24.168;2023-05-15T03:28:54;11.50;99.90
22008;DHT22;11168;56.976;24.168;2023-05-15T03:31:21;11.50;99.90
22008;DHT22;11168;56.976;24.168;2023-05-15T03:33:48;11.50;99.90
22008;DHT22;11168;56.976;24.168;2023-05-15T03:36:17;11.50;99.90
22008;DHT22;11168;56.976;24.168;2023-05-15T03:38:44;11.50;99.90
22008;DHT22;11168;56.976;24.168;2023-05-15T03:41:11;11.50;99.90
22008;DHT22;11168;56.976;24.168;2023-05-15T03:43:37;11.50;99.90
22008;DHT22;11168;56.976;24.168;2023-05-15T03:46:04;11.50;99.90
22008;DHT22;11168;56.976;24.168;2023-05-15T03:48:32;11.50;99.90
22008;DHT22;11168;56.976;24.168;2023-05-15T03:50:59;11.60;99.90
22008;DHT22;11168;56.976;24.168;2023-05-15T03:53:26;11.60;99.90
22008;DHT22;11168;56.976;24.168;2023-05-15T03:55:53;11.70;99.90
22008;DHT22;11168;56.976;24.168;2023-05-15T03:58:20;11.70;99.90
22008;DHT22;11168;56.976;24.168;2023-05-15T04:00:46;11.90;99.90
22008;DHT22;11168;56.976;24.168;2023-05-15T04:03:13;11.90;99.90
22008;DHT22;11168;56.976;24.168;2023-05-15T04:05:40;11.90;99.90
22008;DHT22;11168;56.976;24.168;2023-05-15T04:08:07;12.10;99.90
22008;DHT22;11168;56.976;24.168;2023-05-15T04:10:36;12.20;99.90
22008;DHT22;11168;56.976;24.168;2023-05-15T04:13:03;12.30;99.90
22008;DHT22;11168;56.976;24.168;2023-05-15T04:15:30;12.30;99.90
22008;DHT22;11168;56.976;24.168;2023-05-15T04:17:57;12.40;99.90
22008;DHT22;11168;56.976;24.168;2023-05-15T04:20:24;12.50;99.90
22008;DHT22;11168;56.976;24.168;2023-05-15T04:22:52;12.60;99.90
22008;DHT22;11168;56.976;24.168;2023-05-15T04:25:19;12.70;99.00
22008;DHT22;11168;56.976;24.168;2023-05-15T04:27:46;12.80;96.90
22008;DHT22;11168;56.976;24.168;2023-05-15T04:30:15;12.90;95.40
22008;DHT22;11168;56.976;24.168;2023-05-15T04:32:42;13.00;94.40
22008;DHT22;11168;56.976;24.168;2023-05-15T04:35:09;13.00;94.50
22008;DHT22;11168;56.976;24.168;2023-05-15T04:37:41;13.20;94.10
22008;DHT22;11168;56.976;24.168;2023-05-15T04:40:09;13.30;94.00
22008;DHT22;11168;56.976;24.168;2023-05-15T04:42:36;13.30;93.50
22008;DHT22;11168;56.976;24.168;2023-05-15T04:45:05;13.50;93.20
22008;DHT22;11168;56.976;24.168;2023-05-15T04:47:33;13.60;92.60
22008;DHT22;11168;56.976;24.168;2023-05-15T04:50:00;13.70;92.00
22008;DHT22;11168;56.976;24.168;2023-05-15T04:52:27;13.80;91.10
22008;DHT22;11168;56.976;24.168;2023-05-15T04:54:54;13.80;90.00
22008;DHT22;11168;56.976;24.168;2023-05-15T04:57:21;13.90;87.70
22008;DHT22;11168;56.976;24.168;2023-05-15T04:59:49;14.00;87.90
22008;DHT22;11168;56.976;24.168;2023-05-15T05:02:19;14.00;87.50
22008;DHT22;11168;56.976;24.168;2023-05-15T05:04:48;14.10;86.40
22008;DHT22;11168;56.976;24.168;2023-05-15T05:07:15;14.20;86.60
22008;DHT22;11168;56.976;24.168;2023-05-15T05:09:42;14.30;86.00
22008;DHT22;11168;56.976;24.168;2023-05-15T05:12:09;14.40;85.80
22008;DHT22;11168;56.976;24.168;2023-05-15T05:14:36;14.50;84.90
22008;DHT22;11168;56.976;24.168;2023-05-15T05:17:03;14.70;84.00
22008;DHT22;11168;56.976;24.168;2023-05-15T05:19:30;14.80;84.10
22008;DHT22;11168;56.976;24.168;2023-05-15T05:21:57;14.90;82.40
22008;DHT22;11168;56.976;24.168;2023-05-15T05:24:26;15.00;80.90
22008;DHT22;11168;56.976;24.168;2023-05-15T05:26:54;15.10;81.30
22008;DHT22;11168;56.976;24.168;2023-05-15T05:29:24;15.30;80.70
22008;DHT22;11168;56.976;24.168;2023-05-15T05:31:51;15.40;80.20
22008;DHT22;11168;56.976;24.168;2023-05-15T05:34:19;15.60;78.90
22008;DHT22;11168;56.976;24.168;2023-05-15T05:36:46;15.70;77.80
22008;DHT22;11168;56.976;24.168;2023-05-15T05:39:15;15.80;76.90
22008;DHT22;11168;56.976;24.168;2023-05-15T05:41:43;15.90;75.40
22008;DHT22;11168;56.976;24.168;2023-05-15T05:44:10;16.00;74.70
22008;DHT22;11168;56.976;24.168;2023-05-15T05:46:37;16.20;72.00
22008;DHT22;11168;56.976;24.168;2023-05-15T05:49:04;16.30;71.70
22008;DHT22;11168;56.976;24.168;2023-05-15T05:51:31;16.50;72.40
22008;DHT22;11168;56.976;24.168;2023-05-15T05:53:58;16.50;70.20
22008;DHT22;11168;56.976;24.168;2023-05-15T05:56:25;16.60;69.60
22008;DHT22;11168;56.976;24.168;2023-05-15T05:58:52;16.70;68.90
22008;DHT22;11168;56.976;24.168;2023-05-15T06:01:20;16.90;69.30
22008;DHT22;11168;56.976;24.168;2023-05-15T06:03:47;17.00;68.20
22008;DHT22;11168;56.976;24.168;2023-05-15T06:06:14;17.10;66.70
22008;DHT22;11168;56.976;24.168;2023-05-15T06:08:41;17.30;67.10
22008;DHT22;11168;56.976;24.168;2023-05-15T06:11:08;17.50;64.70
22008;DHT22;11168;56.976;24.168;2023-05-15T06:13:35;17.60;63.30
22008;DHT22;11168;56.976;24.168;2023-05-15T06:16:02;17.80;62.40
22008;DHT22;11168;56.976;24.168;2023-05-15T06:18:29;18.00;61.10
22008;DHT22;11168;56.976;24.168;2023-05-15T06:20:56;18.20;58.80
22008;DHT22;11168;56.976;24.168;2023-05-15T06:23:26;18.30;58.40
22008;DHT22;11168;56.976;24.168;2023-05-15T06:25:53;18.50;58.10
22008;DHT22;11168;56.976;24.168;2023-05-15T06:28:20;18.60;57.30
22008;DHT22;11168;56.976;24.168;2023-05-15T06:30:47;18.80;55.50
22008;DHT22;11168;56.976;24.168;2023-05-15T06:33:14;19.00;54.50
22008;DHT22;11168;56.976;24.168;2023-05-15T06:35:41;19.20;51.80
22008;DHT22;11168;56.976;24.168;2023-05-15T06:38:08;19.30;50.70
22008;DHT22;11168;56.976;24.168;2023-05-15T06:40:35;19.30;51.10
22008;DHT22;11168;56.976;24.168;2023-05-15T06:43:02;19.50;49.90
22008;DHT22;11168;56.976;24.168;2023-05-15T06:45:29;19.70;50.40
22008;DHT22;11168;56.976;24.168;2023-05-15T06:47:57;19.80;48.50
22008;DHT22;11168;56.976;24.168;2023-05-15T06:50:27;20.00;48.90
22008;DHT22;11168;56.976;24.168;2023-05-15T06:52:54;20.20;48.20
22008;DHT22;11168;56.976;24.168;2023-05-15T06:55:21;20.70;49.30
22008;DHT22;11168;56.976;24.168;2023-05-15T06:57:48;21.40;46.10
22008;DHT22;11168;56.976;24.168;2023-05-15T07:00:15;22.50;44.00
22008;DHT22;11168;56.976;24.168;2023-05-15T07:02:42;23.60;40.60
22008;DHT22;11168;56.976;24.168;2023-05-15T07:05:10;24.40;33.60
22008;DHT22;11168;56.976;24.168;2023-05-15T07:07:37;25.00;32.10
22008;DHT22;11168;56.976;24.168;2023-05-15T07:10:04;26.10;30.50
22008;DHT22;11168;56.976;24.168;2023-05-15T07:12:31;27.00;32.00
22008;DHT22;11168;56.976;24.168;2023-05-15T07:14:59;27.30;27.00
22008;DHT22;11168;56.976;24.168;2023-05-15T07:17:26;27.90;25.40
22008;DHT22;11168;56.976;24.168;2023-05-15T07:19:53;27.90;23.10
22008;DHT22;11168;56.976;24.168;2023-05-15T07:22:20;27.90;23.60
22008;DHT22;11168;56.976;24.168;2023-05-15T07:24:47;28.20;23.90
22008;DHT22;11168;56.976;24.168;2023-05-15T07:27:14;28.70;23.50
22008;DHT22;11168;56.976;24.168;2023-05-15T07:29:41;28.20;20.40
22008;DHT22;11168;56.976;24.168;2023-05-15T07:32:08;28.00;20.70
22008;DHT22;11168;56.976;24.168;2023-05-15T07:34:35;28.40;18.60
22008;DHT22;11168;56.976;24.168;2023-05-15T07:37:02;29.00;18.20
22008;DHT22;11168;56.976;24.168;2023-05-15T07:39:29;29.40;17.70
22008;DHT22;11168;56.976;24.168;2023-05-15T07:41:56;29.60;16.00
22008;DHT22;11168;56.976;24.168;2023-05-15T07:44:23;29.40;15.20
22008;DHT22;11168;56.976;24.168;2023-05-15T07:46:50;29.30;15.00
22008;DHT22;11168;56.976;24.168;2023-05-15T07:49:17;29.30;14.70
22008;DHT22;11168;56.976;24.168;2023-05-15T07:51:44;28.80;13.90
22008;DHT22;11168;56.976;24.168;2023-05-15T07:54:11;28.50;14.60
22008;DHT22;11168;56.976;24.168;2023-05-15T07:56:38;28.80;14.60
22008;DHT22;11168;56.976;24.168;2023-05-15T07:59:05;28.50;14.30
22008;DHT22;11168;56.976;24.168;2023-05-15T08:01:32;28.10;14.70
22008;DHT22;11168;56.976;24.168;2023-05-15T08:03:59;28.50;15.20
22008;DHT22;11168;56.976;24.168;2023-05-15T08:06:26;29.30;15.20
22008;DHT22;11168;56.976;24.168;2023-05-15T08:08:53;30.40;16.40
22008;DHT22;11168;56.976;24.168;2023-05-15T08:11:20;30.50;15.30
22008;DHT22;11168;56.976;24.168;2023-05-15T08:13:47;30.20;11.90
22008;DHT22;11168;56.976;24.168;2023-05-15T08:16:14;29.80;12.40
22008;DHT22;11168;56.976;24.168;2023-05-15T08:18:41;29.90;13.70
22008;DHT22;11168;56.976;24.168;2023-05-15T08:21:08;30.90;12.20
22008;DHT22;11168;56.976;24.168;2023-05-15T08:23:35;31.40;11.90
22008;DHT22;11168;56.976;24.168;2023-05-15T08:26:02;32.10;11.80
22008;DHT22;11168;56.976;24.168;2023-05-15T08:28:29;32.70;10.80
22008;DHT22;11168;56.976;24.168;2023-05-15T08:30:56;32.60;10.80
22008;DHT22;11168;56.976;24.168;2023-05-15T08:33:23;33.60;10.20
22008;DHT22;11168;56.976;24.168;2023-05-15T08:35:50;34.10;9.70
22008;DHT22;11168;56.976;24.168;2023-05-15T08:38:18;35.20;7.90
22008;DHT22;11168;56.976;24.168;2023-05-15T08:40:46;36.40;7.80
22008;DHT22;11168;56.976;24.168;2023-05-15T08:43:17;35.20;7.50
22008;DHT22;11168;56.976;24.168;2023-05-15T08:45:44;35.40;6.80
22008;DHT22;11168;56.976;24.168;2023-05-15T08:48:16;34.70;7.10
22008;DHT22;11168;56.976;24.168;2023-05-15T08:50:46;34.30;7.00
22008;DHT22;11168;56.976;24.168;2023-05-15T08:53:14;34.00;7.10
22008;DHT22;11168;56.976;24.168;2023-05-15T08:55:41;33.70;5.10
22008;DHT22;11168;56.976;24.168;2023-05-15T08:58:08;32.40;5.90
22008;DHT22;11168;56.976;24.168;2023-05-15T09:00:35;33.30;6.40
22008;DHT22;11168;56.976;24.168;2023-05-15T09:03:03;32.60;6.70
22008;DHT22;11168;56.976;24.168;2023-05-15T09:05:30;32.60;5.70
22008;DHT22;11168;56.976;24.168;2023-05-15T09:07:58;33.40;6.20
22008;DHT22;11168;56.976;24.168;2023-05-15T09:10:29;34.00;3.70
22008;DHT22;11168;56.976;24.168;2023-05-15T09:12:58;33.20;3.80
22008;DHT22;11168;56.976;24.168;2023-05-15T09:15:27;32.40;3.80
22008;DHT22;11168;56.976;24.168;2023-05-15T09:17:55;31.90;4.00
22008;DHT22;11168;56.976;24.168;2023-05-15T09:20:24;32.20;4.60
22008;DHT22;11168;56.976;24.168;2023-05-15T09:22:52;31.20;4.70
22008;DHT22;11168;56.976;24.168;2023-05-15T09:28:04;30.10;5.50
22008;DHT22;11168;56.976;24.168;2023-05-15T09:30:31;30.90;6.20
22008;DHT22;11168;56.976;24.168;2023-05-15T09:33:01;32.20;4.70
22008;DHT22;11168;56.976;24.168;2023-05-15T09:35:34;33.70;3.60
22008;DHT22;11168;56.976;24.168;2023-05-15T09:38:06;33.80;3.30
22008;DHT22;11168;56.976;24.168;2023-05-15T09:40:33;35.00;3.00
22008;DHT22;11168;56.976;24.168;2023-05-15T09:43:01;35.30;2.90
22008;DHT22;11168;56.976;24.168;2023-05-15T09:45:28;34.10;2.20
22008;DHT22;11168;56.976;24.168;2023-05-15T09:47:58;31.90;2.30
22008;DHT22;11168;56.976;24.168;2023-05-15T09:50:38;31.40;2.80
22008;DHT22;11168;56.976;24.168;2023-05-15T09:53:05;31.40;2.40
22008;DHT22;11168;56.976;24.168;2023-05-15T09:55:36;32.30;2.10
22008;DHT22;11168;56.976;24.168;2023-05-15T09:58:06;31.20;1.70
22008;DHT22;11168;56.976;24.168;2023-05-15T10:00:34;31.60;2.80
22008;DHT22;11168;56.976;24.168;2023-05-15T10:03:02;32.00;2.70
22008;DHT22;11168;56.976;24.168;2023-05-15T10:05:30;32.10;3.10
22008;DHT22;11168;56.976;24.168;2023-05-15T10:08:10;32.10;2.20
22008;DHT22;11168;56.976;24.168;2023-05-15T10:10:37;32.10;1.80
22008;DHT22;11168;56.976;24.168;2023-05-15T10:13:06;31.90;2.40
22008;DHT22;11168;56.976;24.168;2023-05-15T10:15:34;31.40;3.60
22008;DHT22;11168;56.976;24.168;2023-05-15T10:18:03;31.00;1.00
22008;DHT22;11168;56.976;24.168;2023-05-15T10:20:32;30.50;1.40
22008;DHT22;11168;56.976;24.168;2023-05-15T10:23:02;29.50;1.80
22008;DHT22;11168;56.976;24.168;2023-05-15T10:25:49;29.80;2.60
22008;DHT22;11168;56.976;24.168;2023-05-15T10:28:21;30.50;3.00
22008;DHT22;11168;56.976;24.168;2023-05-15T10:30:48;30.20;2.10
22008;DHT22;11168;56.976;24.168;2023-05-15T10:33:15;29.70;2.00
22008;DHT22;11168;56.976;24.168;2023-05-15T10:35:43;29.70;2.30
22008;DHT22;11168;56.976;24.168;2023-05-15T10:38:11;29.70;2.90
22008;DHT22;11168;56.976;24.168;2023-05-15T10:40:39;29.40;2.90
22008;DHT22;11168;56.976;24.168;2023-05-15T10:43:08;28.60;2.80
22008;DHT22;11168;56.976;24.168;2023-05-15T10:45:37;28.00;3.70
22008;DHT22;11168;56.976;24.168;2023-05-15T10:48:05;28.20;3.70
22008;DHT22;11168;56.976;24.168;2023-05-15T10:50:35;28.00;3.80
22008;DHT22;11168;56.976;24.168;2023-05-15T10:53:08;28.10;3.70
22008;DHT22;11168;56.976;24.168;2023-05-15T10:55:35;28.40;3.80
22008;DHT22;11168;56.976;24.168;2023-05-15T10:58:08;28.60;3.70
22008;DHT22;11168;56.976;24.168;2023-05-15T11:00:43;28.40;2.90
22008;DHT22;11168;56.976;24.168;2023-05-15T11:03:14;27.80;3.20
22008;DHT22;11168;56.976;24.168;2023-05-15T11:06:10;28.10;4.10
22008;DHT22;11168;56.976;24.168;2023-05-15T11:08:40;27.50;3.00
22008;DHT22;11168;56.976;24.168;2023-05-15T11:11:07;27.40;3.30
22008;DHT22;11168;56.976;24.168;2023-05-15T11:17:00;27.40;4.20
22008;DHT22;11168;56.976;24.168;2023-05-15T11:19:33;27.30;4.90
22008;DHT22;11168;56.976;24.168;2023-05-15T11:27:37;27.20;2.70
22008;DHT22;11168;56.976;24.168;2023-05-15T11:30:17;27.60;3.00
22008;DHT22;11168;56.976;24.168;2023-05-15T11:37:58;28.10;1.20
22008;DHT22;11168;56.976;24.168;2023-05-15T11:40:31;27.60;1.00
22008;DHT22;11168;56.976;24.168;2023-05-15T11:43:06;27.70;1.00
22008;DHT22;11168;56.976;24.168;2023-05-15T11:45:38;27.70;1.00
22008;DHT22;11168;56.976;24.168;2023-05-15T11:48:07;27.70;1.00
22008;DHT22;11168;56.976;24.168;2023-05-15T11:50:38;27.70;1.00
22008;DHT22;11168;56.976;24.168;2023-05-15T11:53:06;27.60;1.00
22008;DHT22;11168;56.976;24.168;2023-05-15T11:55:36;27.70;1.00
22008;DHT22;11168;56.976;24.168;2023-05-15T11:58:04;28.00;1.00
22008;DHT22;11168;56.976;24.168;2023-05-15T12:00:31;27.80;1.00
22008;DHT22;11168;56.976;24.168;2023-05-15T12:02:58;27.90;1.00
22008;DHT22;11168;56.976;24.168;2023-05-15T12:05:25;27.50;1.00
22008;DHT22;11168;56.976;24.168;2023-05-15T12:07:52;27.60;1.00
22008;DHT22;11168;56.976;24.168;2023-05-15T12:10:20;27.80;1.00
22008;DHT22;11168;56.976;24.168;2023-05-15T12:12:48;27.70;1.00
22008;DHT22;11168;56.976;24.168;2023-05-15T12:15:16;27.70;1.00
22008;DHT22;11168;56.976;24.168;2023-05-15T12:17:44;28.00;1.00
22008;DHT22;11168;56.976;24.168;2023-05-15T12:20:17;28.00;1.00
22008;DHT22;11168;56.976;24.168;2023-05-15T12:22:44;27.70;1.00
22008;DHT22;11168;56.976;24.168;2023-05-15T12:25:13;27.80;1.00
22008;DHT22;11168;56.976;24.168;2023-05-15T12:27:40;27.50;1.00
22008;DHT22;11168;56.976;24.168;2023-05-15T12:30:09;27.30;1.00
22008;DHT22;11168;56.976;24.168;2023-05-15T12:32:37;27.00;1.00
22008;DHT22;11168;56.976;24.168;2023-05-15T12:35:05;27.10;1.00
22008;DHT22;11168;56.976;24.168;2023-05-15T12:37:34;27.10;1.00
22008;DHT22;11168;56.976;24.168;2023-05-15T12:40:03;27.00;1.00
22008;DHT22;11168;56.976;24.168;2023-05-15T12:42:43;27.10;1.00
22008;DHT22;11168;56.976;24.168;2023-05-15T12:45:15;27.00;1.00
22008;DHT22;11168;56.976;24.168;2023-05-15T12:47:43;27.00;1.00
22008;DHT22;11168;56.976;24.168;2023-05-15T12:50:19;27.10;1.00
22008;DHT22;11168;56.976;24.168;2023-05-15T12:55:17;26.90;1.00
22008;DHT22;11168;56.976;24.168;2023-05-15T12:57:48;27.10;1.00
22008;DHT22;11168;56.976;24.168;2023-05-15T13:00:15;27.40;1.00
22008;DHT22;11168;56.976;24.168;2023-05-15T13:02:43;27.10;1.00
22008;DHT22;11168;56.976;24.168;2023-05-15T13:05:12;27.00;1.00
22008;DHT22;11168;56.976;24.168;2023-05-15T13:07:42;27.00;1.00
22008;DHT22;11168;56.976;24.168;2023-05-15T13:10:10;27.20;1.00
22008;DHT22;11168;56.976;24.168;2023-05-15T13:12:45;27.20;1.00
22008;DHT22;11168;56.976;24.168;2023-05-15T13:15:44;26.90;1.00
22008;DHT22;11168;56.976;24.168;2023-05-15T13:18:15;27.00;1.00
22008;DHT22;11168;56.976;24.168;2023-05-15T13:20:47;26.80;1.00
22008;DHT22;11168;56.976;24.168;2023-05-15T13:23:17;26.80;1.00
22008;DHT22;11168;56.976;24.168;2023-05-15T13:25:45;26.50;1.00
22008;DHT22;11168;56.976;24.168;2023-05-15T13:28:12;26.60;1.00
22008;DHT22;11168;56.976;24.168;2023-05-15T13:30:39;26.50;1.00
22008;DHT22;11168;56.976;24.168;2023-05-15T13:33:09;26.40;1.00
22008;DHT22;11168;56.976;24.168;2023-05-15T13:35:37;26.20;1.00
22008;DHT22;11168;56.976;24.168;2023-05-15T13:38:04;26.10;1.00
22008;DHT22;11168;56.976;24.168;2023-05-15T13:40:31;26.10;1.00
22008;DHT22;11168;56.976;24.168;2023-05-15T13:43:02;26.10;1.00
22008;DHT22;11168;56.976;24.168;2023-05-15T13:45:29;26.20;1.00
22008;DHT22;11168;56.976;24.168;2023-05-15T13:47:56;26.30;1.00
22008;DHT22;11168;56.976;24.168;2023-05-15T13:50:23;26.40;1.30
22008;DHT22;11168;56.976;24.168;2023-05-15T13:52:50;26.00;1.00
22008;DHT22;11168;56.976;24.168;2023-05-15T13:55:20;25.80;1.00
22008;DHT22;11168;56.976;24.168;2023-05-15T13:57:48;25.80;2.20
22008;DHT22;11168;56.976;24.168;2023-05-15T14:00:17;25.80;2.40
22008;DHT22;11168;56.976;24.168;2023-05-15T14:02:45;25.80;2.90
22008;DHT22;11168;56.976;24.168;2023-05-15T14:05:13;25.80;3.80
22008;DHT22;11168;56.976;24.168;2023-05-15T14:07:41;25.80;3.20
22008;DHT22;11168;56.976;24.168;2023-05-15T14:10:09;25.70;3.50
22008;DHT22;11168;56.976;24.168;2023-05-15T14:12:36;25.80;3.40
22008;DHT22;11168;56.976;24.168;2023-05-15T14:15:04;25.90;3.40
22008;DHT22;11168;56.976;24.168;2023-05-15T14:17:31;26.00;3.40
22008;DHT22;11168;56.976;24.168;2023-05-15T14:19:58;25.80;3.60
22008;DHT22;11168;56.976;24.168;2023-05-15T14:22:25;25.60;3.30
22008;DHT22;11168;56.976;24.168;2023-05-15T14:24:52;25.40;4.00
22008;DHT22;11168;56.976;24.168;2023-05-15T14:27:19;25.50;4.10
22008;DHT22;11168;56.976;24.168;2023-05-15T14:29:46;25.50;3.70
22008;DHT22;11168;56.976;24.168;2023-05-15T14:32:15;25.50;3.70
22008;DHT22;11168;56.976;24.168;2023-05-15T14:34:43;25.50;3.80
22008;DHT22;11168;56.976;24.168;2023-05-15T14:37:10;25.50;4.10
22008;DHT22;11168;56.976;24.168;2023-05-15T14:39:37;25.40;4.10
22008;DHT22;11168;56.976;24.168;2023-05-15T14:42:04;25.40;3.70
22008;DHT22;11168;56.976;24.168;2023-05-15T14:44:33;25.60;4.10
22008;DHT22;11168;56.976;24.168;2023-05-15T14:47:11;25.80;4.00
22008;DHT22;11168;56.976;24.168;2023-05-15T14:49:39;26.20;4.10
22008;DHT22;11168;56.976;24.168;2023-05-15T14:52:08;26.20;4.30
22008;DHT22;11168;56.976;24.168;2023-05-15T14:54:35;26.30;4.40
22008;DHT22;11168;56.976;24.168;2023-05-15T14:57:03;26.10;3.50
22008;DHT22;11168;56.976;24.168;2023-05-15T14:59:30;25.80;4.10
22008;DHT22;11168;56.976;24.168;2023-05-15T15:01:57;25.70;4.40
22008;DHT22;11168;56.976;24.168;2023-05-15T15:04:24;25.60;5.00
22008;DHT22;11168;56.976;24.168;2023-05-15T15:06:52;25.50;4.70
22008;DHT22;11168;56.976;24.168;2023-05-15T15:09:23;25.30;4.90
22008;DHT22;11168;56.976;24.168;2023-05-15T15:11:54;25.20;4.80
22008;DHT22;11168;56.976;24.168;2023-05-15T15:14:21;25.20;5.70
22008;DHT22;11168;56.976;24.168;2023-05-15T15:16:48;25.20;5.30
22008;DHT22;11168;56.976;24.168;2023-05-15T15:19:15;25.20;5.50
22008;DHT22;11168;56.976;24.168;2023-05-15T15:21:46;25.30;5.80
22008;DHT22;11168;56.976;24.168;2023-05-15T15:24:13;25.30;6.10
22008;DHT22;11168;56.976;24.168;2023-05-15T15:26:40;25.10;6.20
22008;DHT22;11168;56.976;24.168;2023-05-15T15:29:07;25.00;5.40
22008;DHT22;11168;56.976;24.168;2023-05-15T15:31:34;24.90;6.70
22008;DHT22;11168;56.976;24.168;2023-05-15T15:34:01;24.90;6.30
22008;DHT22;11168;56.976;24.168;2023-05-15T15:36:31;24.90;6.30
22008;DHT22;11168;56.976;24.168;2023-05-15T15:38:58;24.90;6.10
22008;DHT22;11168;56.976;24.168;2023-05-15T15:41:25;24.90;6.40
22008;DHT22;11168;56.976;24.168;2023-05-15T15:43:52;24.80;6.30
22008;DHT22;11168;56.976;24.168;2023-05-15T15:46:24;24.80;5.90
22008;DHT22;11168;56.976;24.168;2023-05-15T15:48:52;24.70;6.60
22008;DHT22;11168;56.976;24.168;2023-05-15T15:51:21;24.60;7.00
22008;DHT22;11168;56.976;24.168;2023-05-15T15:53:48;24.60;7.20
22008;DHT22;11168;56.976;24.168;2023-05-15T15:56:15;24.60;7.40
22008;DHT22;11168;56.976;24.168;2023-05-15T15:58:45;24.50;7.50
22008;DHT22;11168;56.976;24.168;2023-05-15T16:01:15;24.50;6.90
22008;DHT22;11168;56.976;24.168;2023-05-15T16:03:43;24.40;8.00
22008;DHT22;11168;56.976;24.168;2023-05-15T16:06:10;24.40;8.00